Time;durP1;ratioP1;P1;durP2;ratioP2;P2;SDS_P1;SDS_P2;PMS_P1;PMS_P2;Temp;Humidity;BMP_temperature;BMP_pressure;BME280_temperature;BME280_humidity;BME280_pressure;Samples;Min_cycle;Max_cycle;Signal;HPM_P1;HPM_P2
2022/12/01 00:01:18;;;;;;;6.47;2.97;;;7.60;99.90;;;7.67;84.65;101333.72;5029874;28;20655;-65
2022/12/01 00:03:46;;;;;;;3.60;2.20;;;7.50;99.90;;;7.61;84.87;101338.38;5037228;28;20632;-65
2022/12/01 00:06:16;;;;;;;5.33;2.47;;;7.60;99.90;;;7.75;84.19;101334.19;5044416;28;20657;-65
2022/12/01 00:10:24;;;;;;;3.37;2.70;;;7.50;99.90;;;7.68;83.94;101338.03;5049451;28;20678;-66
2022/12/01 00:11:34;;;;;;;2.27;2.10;;;7.50;99.90;;;7.59;84.30;101338.47;5034573;28;20644;-65
2022/12/01 00:14:01;;;;;;;9.00;3.10;;;7.50;99.90;;;7.70;84.70;101335.34;5031792;28;20972;-67
2022/12/01 00:16:29;;;;;;;2.93;2.70;;;7.50;99.90;;;7.51;84.49;101334.56;5032545;28;20751;-65
2022/12/01 00:18:57;;;;;;;5.27;2.77;;;7.50;99.90;;;7.48;85.40;101334.69;5031993;28;20724;-65
2022/12/01 00:21:25;;;;;;;3.70;2.80;;;7.40;99.90;;;7.56;85.41;101329.97;5033550;28;20656;-66
2022/12/01 00:23:55;;;;;;;3.80;2.13;;;7.40;99.90;;;7.56;84.59;101333.41;5033301;28;20653;-66
2022/12/01 00:26:24;;;;;;;4.17;2.77;;;7.40;99.90;;;7.62;84.62;101337.47;5033541;28;20663;-65
2022/12/01 00:28:54;;;;;;;5.53;3.90;;;7.40;99.90;;;7.71;84.89;101332.66;5033118;28;20633;-65
2022/12/01 00:31:21;;;;;;;6.67;3.10;;;7.50;99.90;;;7.73;84.70;101336.00;5033818;28;20683;-65
2022/12/01 00:33:48;;;;;;;8.10;3.30;;;7.50;99.90;;;7.64;84.88;101338.25;5027914;28;20706;-65
2022/12/01 00:36:15;;;;;;;6.00;3.50;;;7.50;99.90;;;7.78;84.58;101336.66;5034822;28;21131;-65
2022/12/01 00:38:42;;;;;;;4.97;2.90;;;7.60;99.90;;;7.75;85.19;101341.97;5033612;28;20616;-66
2022/12/01 00:41:09;;;;;;;7.03;4.83;;;7.50;99.90;;;7.83;84.73;101347.66;5033557;28;20660;-65
2022/12/01 00:43:36;;;;;;;7.17;4.30;;;7.50;99.90;;;7.90;85.41;101344.75;5021610;28;20632;-66
2022/12/01 00:46:03;;;;;;;5.53;3.63;;;7.60;99.90;;;7.90;84.73;101348.16;5034532;28;20679;-66
2022/12/01 00:48:30;;;;;;;3.53;2.87;;;7.60;99.90;;;7.94;84.45;101346.28;5032786;28;20686;-66
2022/12/01 00:50:57;;;;;;;10.07;4.47;;;7.60;99.90;;;8.01;84.30;101350.28;5032318;28;21200;-65
2022/12/01 00:53:24;;;;;;;7.87;2.87;;;7.70;99.90;;;8.07;83.83;101342.16;5032628;28;20623;-69
2022/12/01 00:55:52;;;;;;;10.90;3.30;;;7.70;99.90;;;8.00;83.82;101344.22;5031906;28;20674;-65
2022/12/01 00:58:20;;;;;;;12.53;5.10;;;7.70;99.90;;;7.99;84.10;101342.53;5047684;28;21182;-65
2022/12/01 01:00:47;;;;;;;11.17;3.63;;;7.70;99.90;;;8.00;84.57;101345.97;5044811;28;20755;-65
2022/12/01 01:03:14;;;;;;;5.00;3.43;;;7.70;99.90;;;7.97;84.02;101346.97;5042897;28;20628;-66
2022/12/01 01:05:42;;;;;;;6.00;3.80;;;7.70;99.90;;;8.03;83.61;101341.44;5030746;28;20721;-66
2022/12/01 01:08:12;;;;;;;6.33;3.23;;;7.70;99.90;;;7.95;83.82;101350.53;5032716;28;20716;-65
2022/12/01 01:10:44;;;;;;;5.07;2.93;;;7.70;99.90;;;7.99;84.71;101346.88;5032433;28;20609;-65
2022/12/01 01:13:13;;;;;;;7.40;4.23;;;7.70;99.90;;;8.01;84.65;101356.28;5032646;28;20644;-65
2022/12/01 01:15:40;;;;;;;6.07;4.47;;;7.70;99.90;;;8.04;84.03;101353.53;5022251;28;20650;-65
2022/12/01 01:18:08;;;;;;;3.87;2.97;;;7.70;99.90;;;8.00;84.37;101359.81;5028389;28;20652;-65
2022/12/01 01:20:35;;;;;;;10.13;3.43;;;7.70;99.90;;;8.07;84.54;101355.16;5048749;28;20668;-65
2022/12/01 01:23:02;;;;;;;5.90;3.50;;;7.70;99.90;;;7.98;84.63;101355.59;5051418;28;20618;-65
2022/12/01 01:25:31;;;;;;;5.90;3.60;;;7.70;99.90;;;8.03;84.64;101351.03;5041466;28;20721;-66
2022/12/01 01:27:58;;;;;;;8.40;4.07;;;7.70;99.90;;;8.06;85.05;101361.25;5033194;28;21165;-65
2022/12/01 01:30:25;;;;;;;12.17;5.20;;;7.70;99.90;;;8.07;85.20;101360.34;5031999;28;20635;-65
2022/12/01 01:32:52;;;;;;;6.20;3.50;;;7.70;99.90;;;8.07;85.01;101362.94;5027817;28;20740;-66
2022/12/01 01:35:19;;;;;;;6.33;3.57;;;7.80;99.90;;;8.14;84.55;101352.16;5042053;28;20706;-68
2022/12/01 01:37:45;;;;;;;11.20;5.53;;;7.80;99.90;;;8.14;84.44;101370.34;5032147;28;20643;-66
2022/12/01 01:40:12;;;;;;;8.10;4.03;;;7.80;99.90;;;8.12;85.39;101371.34;5032174;28;20736;-66
2022/12/01 01:42:39;;;;;;;4.27;3.63;;;7.80;99.90;;;8.07;84.99;101371.56;5032967;28;20625;-65
2022/12/01 01:45:20;;;;;;;5.83;3.00;;;7.80;99.90;;;7.99;85.27;101371.13;5032691;28;20670;-65
2022/12/01 01:47:49;;;;;;;6.27;3.50;;;7.80;99.90;;;8.05;85.20;101382.97;5017075;28;20623;-65
2022/12/01 01:50:20;;;;;;;10.20;4.87;;;7.70;99.90;;;8.05;85.53;101378.59;5029857;28;20645;-65
2022/12/01 01:52:56;;;;;;;7.63;4.80;;;7.70;99.90;;;8.07;85.01;101383.75;5032352;28;20635;-66
2022/12/01 01:55:23;;;;;;;8.80;3.83;;;7.70;99.90;;;8.07;85.44;101378.53;5030703;28;20660;-65
2022/12/01 01:57:50;;;;;;;8.80;3.80;;;7.70;99.90;;;8.06;85.08;101380.28;5032479;28;20628;-65
2022/12/01 02:00:19;;;;;;;8.83;4.70;;;7.70;99.90;;;8.04;86.30;101378.69;5030073;28;20661;-67
2022/12/01 02:02:48;;;;;;;5.70;3.80;;;7.70;99.90;;;8.00;86.21;101375.41;5031644;28;20638;-65
2022/12/01 02:05:29;;;;;;;6.63;4.00;;;7.70;99.90;;;8.02;86.13;101381.38;5041436;28;20727;-65
2022/12/01 02:07:58;;;;;;;6.63;2.63;;;7.70;99.90;;;7.92;86.07;101376.69;5061480;28;20677;-65
2022/12/01 02:11:11;;;;;;;7.87;3.37;;;7.70;99.90;;;7.81;86.74;101372.84;5031154;28;20660;-67
2022/12/01 02:14:13;;;;;;;5.67;3.70;;;7.70;99.90;;;7.96;86.37;101379.09;5041037;28;20654;-66
2022/12/01 02:17:08;;;;;;;7.20;4.50;;;7.70;99.90;;;7.97;86.66;101379.91;5046685;28;20637;-66
2022/12/01 02:19:47;;;;;;;7.00;3.70;;;7.70;99.90;;;7.95;87.10;101379.13;5029558;28;20636;-65
2022/12/01 02:23:00;;;;;;;17.87;6.40;;;7.60;99.90;;;7.88;88.27;101376.00;5031557;28;20664;-66
2022/12/01 02:26:21;;;;;;;12.33;5.40;;;7.60;99.90;;;7.91;88.17;101375.84;5046789;22;20631;-63
2022/12/01 02:29:24;;;;;;;10.87;5.80;;;7.60;99.90;;;7.80;89.06;101378.97;4996359;28;20634;-64
2022/12/01 02:32:31;;;;;;;7.33;4.30;;;7.60;99.90;;;7.86;88.87;101366.63;5022048;28;21249;-64
2022/12/01 02:35:23;;;;;;;15.33;7.03;;;7.60;99.90;;;7.40;91.97;101371.41;5035876;28;20644;-64
2022/12/01 02:38:13;;;;;;;13.10;6.70;;;7.40;99.90;;;7.39;91.44;101361.94;5047245;28;20625;-64
2022/12/01 02:41:00;;;;;;;12.63;6.23;;;7.30;99.90;;;7.55;90.32;101370.69;5028039;28;20666;-64
2022/12/01 02:43:49;;;;;;;16.10;7.77;;;7.30;99.90;;;7.59;90.12;101371.38;5063191;28;20624;-64
2022/12/01 02:46:33;;;;;;;14.13;7.10;;;7.40;99.90;;;7.52;90.89;101363.03;5045118;28;20680;-64
2022/12/01 02:49:09;;;;;;;14.90;6.60;;;7.30;99.90;;;7.57;90.59;101366.25;5045127;28;20663;-65
2022/12/01 02:51:39;;;;;;;10.50;4.97;;;7.30;99.90;;;7.57;90.29;101368.84;5016744;28;20631;-65
2022/12/01 02:54:07;;;;;;;16.47;6.83;;;7.30;99.90;;;7.58;91.05;101362.72;5029702;28;20621;-64
2022/12/01 02:56:34;;;;;;;13.43;7.13;;;7.30;99.90;;;7.65;90.19;101369.31;5031119;28;21240;-64
2022/12/01 02:59:01;;;;;;;18.63;7.53;;;7.30;99.90;;;7.62;89.59;101371.25;5031101;28;20620;-63
2022/12/01 03:01:58;;;;;;;14.83;7.23;;;7.30;99.90;;;7.54;90.30;101378.53;5052493;28;20741;-63
2022/12/01 03:04:59;;;;;;;15.13;7.33;;;7.30;99.90;;;7.39;91.50;101366.31;5018271;28;20982;-64
2022/12/01 03:07:53;;;;;;;17.50;7.83;;;7.20;99.90;;;7.31;92.41;101371.84;5028232;28;20703;-64
2022/12/01 03:10:44;;;;;;;16.10;6.70;;;7.20;99.90;;;7.31;92.53;101364.03;5023165;28;20640;-63
2022/12/01 03:13:26;;;;;;;15.77;6.83;;;7.20;99.90;;;7.33;93.64;101369.16;5026262;28;20643;-64
2022/12/01 03:16:15;;;;;;;16.63;7.20;;;7.20;99.90;;;7.29;93.64;101360.69;5037998;28;20656;-65
2022/12/01 03:19:13;;;;;;;10.70;5.17;;;7.10;99.90;;;7.32;92.83;101370.09;5031157;28;20641;-64
2022/12/01 03:21:51;;;;;;;13.27;6.43;;;7.10;99.90;;;7.21;93.13;101357.63;5009201;28;20680;-64
2022/12/01 03:24:21;;;;;;;12.17;5.07;;;7.10;99.90;;;7.31;92.30;101358.84;5024297;28;20612;-64
2022/12/01 03:26:55;;;;;;;18.20;7.40;;;7.10;99.90;;;7.29;93.57;101365.88;5030857;28;21037;-64
2022/12/01 03:29:48;;;;;;;14.47;7.47;;;7.00;99.90;;;7.17;93.98;101366.47;5035725;28;20995;-65
2022/12/01 03:32:32;;;;;;;10.47;4.77;;;7.00;99.90;;;7.30;93.27;101362.38;5038403;28;20644;-65
2022/12/01 03:35:07;;;;;;;16.17;6.60;;;7.00;99.90;;;7.27;93.66;101364.25;5032432;28;20643;-64
2022/12/01 03:38:39;;;;;;;11.27;6.23;;;7.00;99.90;;;7.34;93.26;101357.88;5040824;28;20682;-65
2022/12/01 03:41:15;;;;;;;13.40;6.43;;;7.00;99.90;;;7.38;91.64;101364.59;4979687;28;21341;-65
2022/12/01 03:43:50;;;;;;;18.43;9.20;;;7.00;99.90;;;7.22;93.56;101369.66;4956931;28;21031;-65
2022/12/01 03:46:51;;;;;;;16.50;8.30;;;7.00;99.90;;;7.15;93.67;101359.66;5006702;28;20648;-65
2022/12/01 03:49:20;;;;;;;21.43;8.87;;;7.00;99.90;;;7.15;93.37;101359.66;5021541;28;21183;-64
2022/12/01 03:52:34;;;;;;;18.77;8.40;;;7.00;99.90;;;7.09;94.46;101371.16;5028441;28;20636;-65
2022/12/01 03:55:20;;;;;;;18.73;6.60;;;6.90;99.90;;;7.09;93.38;101371.16;5028979;28;20645;-64
2022/12/01 03:58:12;;;;;;;15.80;7.50;;;6.90;99.90;;;7.09;94.32;101368.56;5047323;28;20628;-64
2022/12/01 04:00:40;;;;;;;19.17;8.20;;;6.90;99.90;;;6.80;95.56;101377.66;5029238;28;20629;-63
2022/12/01 04:03:15;;;;;;;20.50;8.30;;;6.80;99.90;;;6.93;95.91;101365.81;5029241;28;20996;-64
2022/12/01 04:05:42;;;;;;;15.60;6.90;;;6.80;99.90;;;7.08;95.05;101372.06;5023845;28;20685;-64
2022/12/01 04:08:09;;;;;;;19.83;8.43;;;6.80;99.90;;;7.02;94.50;101380.97;5050641;28;20710;-64
2022/12/01 04:10:36;;;;;;;12.57;5.03;;;6.80;99.90;;;7.08;93.94;101382.44;5037553;28;20665;-64
2022/12/01 04:13:03;;;;;;;9.77;5.43;;;6.90;99.90;;;7.10;93.35;101379.75;5030626;28;20627;-64
2022/12/01 04:15:30;;;;;;;14.30;6.33;;;6.90;99.90;;;7.07;93.00;101388.53;5038421;28;20653;-64
2022/12/01 04:17:57;;;;;;;13.13;6.27;;;6.90;99.90;;;7.13;93.72;101384.81;5028466;28;20633;-64
2022/12/01 04:20:24;;;;;;;10.20;5.03;;;6.80;99.90;;;7.19;92.27;101381.94;5036622;28;21002;-65
2022/12/01 04:22:51;;;;;;;10.57;4.70;;;6.90;99.90;;;7.20;93.35;101383.66;5027763;28;20714;-64
2022/12/01 04:25:18;;;;;;;10.20;4.83;;;6.90;99.90;;;7.21;93.30;101382.72;5038708;28;20758;-64
2022/12/01 04:27:44;;;;;;;7.80;4.47;;;6.90;99.90;;;7.25;92.98;101392.03;5049285;28;20615;-64
2022/12/01 04:30:12;;;;;;;8.47;4.90;;;6.90;99.90;;;7.28;93.00;101382.38;5048685;28;20627;-64
2022/12/01 04:32:41;;;;;;;10.67;4.80;;;7.00;99.90;;;7.32;92.12;101380.47;5049264;28;20620;-64
2022/12/01 04:35:11;;;;;;;6.13;4.20;;;6.90;99.90;;;7.33;92.83;101383.00;5040937;28;20728;-64
2022/12/01 04:37:38;;;;;;;8.57;4.40;;;7.00;99.90;;;7.34;92.73;101387.28;5045759;28;20644;-64
2022/12/01 04:40:06;;;;;;;16.80;7.47;;;7.00;99.90;;;7.24;93.30;101386.00;5048242;28;20629;-64
2022/12/01 04:42:33;;;;;;;6.70;3.40;;;7.00;99.90;;;7.03;93.38;101389.59;5050638;28;20758;-64
2022/12/01 04:45:00;;;;;;;4.43;3.17;;;6.90;99.90;;;7.14;91.20;101389.94;5039951;28;20731;-64
2022/12/01 04:47:27;;;;;;;6.37;3.50;;;6.90;99.90;;;7.23;89.10;101381.75;5041336;28;20647;-64
2022/12/01 04:49:54;;;;;;;8.33;3.40;;;6.90;99.90;;;7.07;87.59;101378.16;5034203;28;21271;-63
2022/12/01 04:52:21;;;;;;;12.87;5.60;;;6.90;99.90;;;7.17;86.06;101384.63;5019078;28;20623;-63
2022/12/01 04:54:48;;;;;;;15.57;6.23;;;6.90;99.90;;;6.91;89.50;101384.94;5039837;28;20628;-63
2022/12/01 04:57:15;;;;;;;7.33;4.60;;;6.80;99.90;;;7.03;88.72;101389.59;5015362;28;21232;-64
2022/12/01 04:59:42;;;;;;;7.90;3.97;;;6.80;99.90;;;7.14;85.13;101389.09;5043458;28;20614;-64
2022/12/01 05:02:09;;;;;;;11.43;5.50;;;6.80;99.90;;;7.02;79.81;101393.09;5044474;28;20676;-64
2022/12/01 05:04:40;;;;;;;5.67;3.30;;;6.80;99.90;;;7.01;78.38;101397.44;5051815;28;20730;-64
2022/12/01 05:07:07;;;;;;;6.80;3.80;;;6.80;99.90;;;6.92;77.67;101392.66;5044421;28;20676;-63
2022/12/01 05:09:34;;;;;;;4.60;1.10;;;6.80;99.90;;;6.56;79.12;101393.47;5037680;28;21153;-63
2022/12/01 05:12:01;;;;;;;7.47;2.80;;;6.70;99.90;;;6.75;77.38;101391.75;5031346;28;20637;-64
2022/12/01 05:14:28;;;;;;;4.10;2.73;;;6.70;99.90;;;6.38;79.44;101394.22;5035878;28;20694;-63
2022/12/01 05:16:56;;;;;;;4.57;3.00;;;6.50;99.90;;;6.64;77.47;101399.16;5035634;28;20665;-63
2022/12/01 05:22:09;;;;;;;3.90;2.80;;;6.50;99.90;;;6.72;78.44;101394.47;5026339;28;20644;-64
2022/12/01 05:24:36;;;;;;;2.57;1.80;;;6.50;99.90;;;6.77;78.13;101388.16;5046376;28;20635;-63
2022/12/01 05:27:03;;;;;;;3.70;2.70;;;6.50;99.90;;;6.69;78.29;101390.25;5047380;28;20675;-64
2022/12/01 05:29:31;;;;;;;5.43;3.20;;;6.50;99.90;;;6.78;78.28;101402.81;5034261;28;20651;-63
2022/12/01 05:31:58;;;;;;;11.97;5.57;;;6.50;99.90;;;6.68;77.10;101400.69;5032596;28;20616;-64
2022/12/01 05:34:26;;;;;;;1.93;1.83;;;6.50;99.90;;;6.70;76.56;101407.50;5032072;28;21267;-63
2022/12/01 05:36:53;;;;;;;12.70;6.37;;;6.60;99.90;;;6.54;78.20;101400.47;5046367;28;20697;-63
2022/12/01 05:39:19;;;;;;;7.10;3.57;;;6.50;99.90;;;6.43;78.25;101402.66;5046931;28;20607;-63
2022/12/01 05:41:46;;;;;;;3.63;1.90;;;6.40;99.90;;;6.59;76.67;101401.94;5044133;28;20664;-64
2022/12/01 05:44:13;;;;;;;1.63;1.50;;;6.50;99.90;;;6.70;76.60;101398.88;5032897;28;20620;-63
2022/12/01 05:46:40;;;;;;;8.00;4.27;;;6.50;99.90;;;6.64;77.09;101396.56;5032247;28;20633;-64
2022/12/01 05:49:07;;;;;;;6.83;3.40;;;6.50;99.90;;;6.67;76.43;101404.19;5044146;28;21091;-61
2022/12/01 05:51:34;;;;;;;4.63;2.47;;;6.40;99.90;;;6.55;76.96;101402.13;5033572;28;20609;-64
2022/12/01 05:54:01;;;;;;;3.40;2.13;;;6.50;99.90;;;6.58;76.92;101410.59;5038840;28;21018;-64
2022/12/01 05:56:28;;;;;;;12.20;4.17;;;6.40;99.90;;;6.52;77.14;101404.84;5051301;28;21046;-64
2022/12/01 05:58:54;;;;;;;3.30;3.00;;;6.40;99.90;;;6.58;76.25;101410.59;5063554;28;20640;-64
2022/12/01 06:01:22;;;;;;;8.27;4.63;;;6.40;99.90;;;6.58;75.61;101420.16;5034803;28;20720;-64
2022/12/01 06:03:49;;;;;;;3.20;2.20;;;6.40;99.90;;;6.12;76.89;101413.47;5043300;28;20616;-64
2022/12/01 06:06:16;;;;;;;7.57;3.57;;;6.30;99.90;;;5.85;77.94;101415.44;5024125;28;20660;-64
2022/12/01 06:08:43;;;;;;;5.60;3.05;;;6.10;99.90;;;5.89;77.74;101417.00;5035516;28;21280;-64
2022/12/01 06:11:10;;;;;;;2.50;1.60;;;5.90;99.90;;;5.74;79.21;101420.16;5030073;28;20205;-64
2022/12/01 06:13:37;;;;;;;6.65;4.13;;;6.00;99.90;;;6.09;78.57;101423.97;5036637;28;20201;-65
2022/12/01 06:16:06;;;;;;;2.33;2.00;;;6.00;99.90;;;6.19;76.84;101420.09;5030675;28;20245;-64
2022/12/01 06:18:36;;;;;;;5.40;1.60;;;6.00;99.90;;;6.26;77.21;101432.72;5041379;28;20201;-64
2022/12/01 06:21:05;;;;;;;1.50;1.40;;;6.10;99.90;;;6.23;76.83;101422.50;5039333;28;20624;-65
2022/12/01 06:23:32;;;;;;;2.08;1.40;;;6.10;99.90;;;6.28;76.54;101419.72;5048053;28;20194;-64
2022/12/01 06:25:59;;;;;;;11.13;3.20;;;6.10;99.90;;;6.26;76.17;101426.72;5028288;28;20234;-64
2022/12/01 06:28:26;;;;;;;3.60;1.80;;;6.10;99.90;;;6.25;77.06;101422.41;5040512;28;20201;-65
2022/12/01 06:30:53;;;;;;;9.43;4.07;;;6.10;99.90;;;6.28;76.96;101427.50;5035712;28;20198;-64
2022/12/01 06:33:29;;;;;;;14.83;6.30;;;6.10;99.90;;;6.11;77.60;101422.97;5054779;28;20989;-64
2022/12/01 06:36:01;;;;;;;5.90;3.60;;;6.10;99.90;;;6.27;76.47;101428.38;5031085;28;20664;-64
2022/12/01 06:38:36;;;;;;;10.60;5.13;;;6.10;99.90;;;6.20;76.62;101425.19;5042869;28;20677;-64
2022/12/01 06:41:04;;;;;;;7.10;3.97;;;6.10;99.90;;;6.29;76.09;101426.56;5025504;28;20647;-64
2022/12/01 06:43:31;;;;;;;1.83;1.10;;;6.10;99.90;;;6.20;75.64;101422.59;5032225;28;20658;-64
2022/12/01 06:45:58;;;;;;;5.33;3.10;;;6.10;99.90;;;6.14;76.09;101425.44;5044088;28;20692;-63
2022/12/01 06:48:29;;;;;;;2.27;2.07;;;6.10;99.90;;;6.18;75.97;101428.75;5041224;28;20620;-65
2022/12/01 06:50:58;;;;;;;3.63;2.85;;;6.10;99.90;;;6.20;75.15;101426.94;5047094;28;20635;-64
2022/12/01 06:53:27;;;;;;;4.83;2.50;;;6.10;99.90;;;6.31;75.59;101439.44;5031632;28;20209;-64
2022/12/01 06:56:02;;;;;;;4.90;2.43;;;6.10;99.90;;;6.13;76.58;101446.25;5029902;28;20669;-65
2022/12/01 06:58:30;;;;;;;7.37;4.50;;;6.00;99.90;;;6.16;76.43;101446.09;5029451;28;21266;-65
2022/12/01 07:00:57;;;;;;;2.73;1.10;;;6.00;99.90;;;6.21;75.57;101445.03;5030645;28;20649;-64
2022/12/01 07:03:25;;;;;;;5.25;3.97;;;6.10;99.90;;;6.18;75.48;101444.31;5033332;28;20703;-65
2022/12/01 07:05:59;;;;;;;6.60;4.15;;;6.00;99.90;;;6.13;76.00;101441.06;5030695;28;20605;-65
2022/12/01 07:08:28;;;;;;;1.33;1.20;;;6.00;99.90;;;6.17;76.05;101451.25;5036430;28;20197;-64
2022/12/01 07:11:03;;;;;;;1.87;1.60;;;6.00;99.90;;;6.26;75.22;101452.63;5019942;28;20656;-64
2022/12/01 07:13:30;;;;;;;9.60;4.88;;;6.00;99.90;;;6.18;75.96;101452.06;5022459;28;20616;-64
2022/12/01 07:16:04;;;;;;;5.70;4.00;;;6.00;99.90;;;6.20;75.30;101452.84;5042697;28;20226;-64
2022/12/01 07:18:32;;;;;;;1.25;1.15;;;6.00;99.90;;;6.22;75.04;101459.66;5035830;28;20609;-64
2022/12/01 07:21:09;;;;;;;5.50;3.50;;;6.10;99.90;;;6.23;75.92;101460.50;5027980;28;20194;-64
2022/12/01 07:23:36;;;;;;;10.50;5.18;;;6.00;99.90;;;5.99;75.92;101470.13;5027741;28;20667;-63
2022/12/01 07:26:10;;;;;;;3.83;2.78;;;6.00;99.90;;;5.87;76.50;101462.84;5028161;28;20225;-64
2022/12/01 07:28:37;;;;;;;3.53;1.75;;;5.90;99.90;;;5.89;76.53;101466.22;5030737;28;20646;-64
2022/12/01 07:31:09;;;;;;;7.85;2.63;;;5.80;99.90;;;5.97;76.46;101465.88;5027070;28;20686;-64
2022/12/01 07:33:37;;;;;;;8.13;4.57;;;5.80;99.90;;;5.92;76.75;101465.25;5028221;28;20210;-64
2022/12/01 07:36:05;;;;;;;6.82;2.70;;;5.90;99.90;;;6.10;76.29;101469.69;4994062;28;20229;-64
2022/12/01 07:38:33;;;;;;;6.45;3.05;;;5.90;99.90;;;6.01;76.54;101472.63;5036464;28;20687;-63
2022/12/01 07:41:07;;;;;;;9.30;4.90;;;5.90;99.90;;;6.07;76.95;101468.06;5036016;28;20647;-65
2022/12/01 07:43:35;;;;;;;9.50;5.03;;;5.90;99.90;;;6.06;77.90;101476.75;5054964;28;20214;-64
2022/12/01 07:46:08;;;;;;;9.47;4.60;;;5.90;99.90;;;6.08;76.69;101472.34;5043038;28;20641;-65
2022/12/01 07:48:36;;;;;;;11.95;6.07;;;5.90;99.90;;;6.04;76.49;101472.53;5034781;28;21249;-64
2022/12/01 07:51:17;;;;;;;11.65;5.78;;;5.90;99.90;;;6.01;76.87;101483.84;5024964;28;20240;-64
2022/12/01 07:53:46;;;;;;;10.20;5.43;;;5.90;99.90;;;6.22;76.38;101488.16;5029986;28;20614;-64
2022/12/01 07:56:13;;;;;;;5.80;3.90;;;6.00;99.90;;;6.31;75.70;101484.38;5043676;28;20672;-65
2022/12/01 07:58:40;;;;;;;10.97;6.23;;;6.00;99.90;;;6.39;76.80;101487.47;5040944;28;20632;-64
2022/12/01 08:01:19;;;;;;;14.50;6.57;;;6.10;99.90;;;6.26;76.62;101479.34;5020888;28;21088;-65
2022/12/01 08:03:54;;;;;;;13.47;7.10;;;6.10;99.90;;;6.33;76.76;101484.28;5023762;28;20664;-65
2022/12/01 08:06:23;;;;;;;11.70;6.37;;;6.20;99.90;;;6.24;76.96;101482.91;5036880;28;20639;-65
2022/12/01 08:08:50;;;;;;;8.93;5.20;;;6.10;99.90;;;6.26;76.27;101481.13;5021655;28;20637;-64
2022/12/01 08:11:24;;;;;;;0.67;0.67;;;6.10;99.90;;;6.42;74.25;101487.38;5029153;28;20620;-64
2022/12/01 08:13:52;;;;;;;1.93;1.83;;;6.10;99.90;;;6.33;75.16;101482.56;5039657;28;20612;-64
2022/12/01 08:16:21;;;;;;;4.80;2.30;;;6.20;99.90;;;6.42;75.08;101479.59;5040780;28;21081;-64
2022/12/01 08:18:49;;;;;;;2.63;1.50;;;6.10;99.90;;;6.28;75.77;101483.66;5032904;28;20644;-65
2022/12/01 08:21:20;;;;;;;17.37;7.50;;;6.10;99.90;;;6.22;76.18;101482.13;5049040;28;20656;-64
2022/12/01 08:23:47;;;;;;;13.27;7.30;;;6.10;99.90;;;6.28;77.01;101486.25;5040819;28;21234;-63
2022/12/01 08:26:17;;;;;;;13.30;7.03;;;6.10;99.90;;;6.33;76.51;101484.28;5023175;28;20669;-65
2022/12/01 08:28:45;;;;;;;8.97;4.67;;;6.10;99.90;;;6.35;76.36;101482.47;5051676;22;20709;-65
2022/12/01 08:31:19;;;;;;;14.40;6.60;;;6.10;99.90;;;6.34;75.79;101481.66;5031625;28;20710;-65
2022/12/01 08:33:47;;;;;;;10.30;5.40;;;6.10;99.90;;;6.31;76.37;101486.09;5051890;28;20612;-65
2022/12/01 08:36:17;;;;;;;14.37;7.97;;;6.20;99.90;;;6.25;75.33;101489.81;5053913;28;20693;-66
2022/12/01 08:38:45;;;;;;;9.20;5.63;;;6.10;99.90;;;6.34;74.35;101483.41;5049253;28;20676;-65
2022/12/01 08:41:13;;;;;;;10.50;4.75;;;6.20;99.90;;;6.53;74.38;101485.19;5031388;28;21055;-65
2022/12/01 08:43:43;;;;;;;7.83;4.60;;;6.30;99.90;;;6.61;73.83;101490.88;5033199;28;20309;-64
2022/12/01 08:46:31;;;;;;;13.70;6.10;;;6.30;99.90;;;6.59;74.43;101489.25;5032573;28;20714;-64
2022/12/01 08:48:58;;;;;;;14.00;6.63;;;6.30;99.90;;;6.70;73.39;101487.91;5031350;28;21239;-61
2022/12/01 08:51:25;;;;;;;12.03;5.73;;;6.40;99.90;;;6.76;73.37;101486.78;5032520;28;20620;-65
2022/12/01 08:53:55;;;;;;;16.00;8.10;;;6.50;99.90;;;6.62;73.42;101487.34;5046627;28;20676;-65
2022/12/01 08:56:36;;;;;;;6.17;3.60;;;6.50;99.90;;;6.71;73.56;101502.53;5045962;28;20613;-65
2022/12/01 08:59:03;;;;;;;15.17;7.87;;;6.50;99.90;;;6.70;74.88;101490.50;5030829;28;20652;-64
2022/12/01 09:01:31;;;;;;;17.13;8.57;;;6.50;99.90;;;6.56;75.26;101487.63;5033450;28;20608;-64
2022/12/01 09:04:04;;;;;;;14.40;7.90;;;6.50;99.90;;;6.62;74.65;101492.53;5032769;28;20726;-65
2022/12/01 09:06:38;;;;;;;10.40;6.70;;;6.60;99.90;;;6.40;76.36;101488.31;5033663;28;21343;-65
2022/12/01 09:09:08;;;;;;;15.03;9.27;;;6.40;99.90;;;6.29;77.98;101483.59;5031883;28;21222;-65
2022/12/01 09:11:35;;;;;;;13.25;7.13;;;6.30;99.90;;;6.45;77.04;101491.59;5031155;28;20992;-65
2022/12/01 09:14:02;;;;;;;13.88;8.18;;;6.30;99.90;;;6.40;77.69;101486.59;5030858;28;20554;-65
2022/12/01 09:16:29;;;;;;;11.70;7.90;;;6.30;99.90;;;6.30;78.39;101487.03;5013037;28;20203;-66
2022/12/01 09:18:56;;;;;;;12.13;7.00;;;6.30;99.90;;;6.33;76.85;101479.09;5015013;28;20649;-66
2022/12/01 09:21:27;;;;;;;16.93;8.13;;;6.20;99.90;;;6.37;76.80;101480.69;5032886;28;20336;-65
2022/12/01 09:23:54;;;;;;;19.70;8.13;;;6.30;99.90;;;6.45;77.25;101489.00;5031748;28;20665;-65
2022/12/01 09:26:21;;;;;;;16.07;8.67;;;6.30;99.90;;;6.62;77.51;101494.31;5033873;28;20612;-65
2022/12/01 09:28:53;;;;;;;15.20;7.80;;;6.40;99.90;;;6.66;77.08;101495.88;5032198;28;20675;-64
2022/12/01 09:31:22;;;;;;;15.47;9.20;;;6.50;99.90;;;6.66;77.43;101495.88;5044648;28;20731;-64
2022/12/01 09:33:58;;;;;;;14.17;6.57;;;6.50;99.90;;;6.58;78.00;101490.16;5044275;28;20640;-65
2022/12/01 09:36:25;;;;;;;10.80;5.63;;;6.50;99.90;;;6.81;76.89;101495.22;5036782;28;20710;-64
2022/12/01 09:38:52;;;;;;;14.47;7.30;;;6.50;99.90;;;6.90;75.80;101490.47;5027703;28;20654;-65
2022/12/01 09:41:44;;;;;;;11.27;4.80;;;6.60;99.90;;;6.84;77.30;101492.47;5019274;28;20640;-64
2022/12/01 09:44:32;;;;;;;12.80;6.50;;;6.60;99.90;;;6.91;76.85;101492.16;5032382;28;20667;-64
2022/12/01 09:47:12;;;;;;;11.60;6.03;;;6.70;99.90;;;7.13;76.30;101488.63;5026842;28;20649;-66
2022/12/01 09:50:05;;;;;;;4.03;3.57;;;6.70;99.90;;;7.20;75.06;101487.47;5051740;28;20608;-65
2022/12/01 09:52:46;;;;;;;2.00;1.53;;;6.80;99.90;;;7.13;72.81;101481.69;5032550;28;20633;-63
2022/12/01 09:55:16;;;;;;;8.13;4.33;;;6.90;99.90;;;6.93;73.85;101479.13;5032699;28;20632;-66
2022/12/01 09:57:48;;;;;;;13.30;6.73;;;6.80;99.90;;;6.95;72.32;101480.75;5016392;28;20669;-65
2022/12/01 10:00:28;;;;;;;4.37;1.17;;;6.80;99.90;;;7.10;69.95;101483.56;5051501;28;20728;-65
2022/12/01 10:03:31;;;;;;;9.10;4.87;;;6.80;99.90;;;7.01;72.02;101482.22;5030427;28;20664;-65
2022/12/01 10:06:07;;;;;;;7.73;4.10;;;6.80;99.90;;;7.07;71.76;101478.53;5043876;28;20629;-65
2022/12/01 10:09:27;;;;;;;5.13;2.20;;;6.80;99.90;;;7.28;70.27;101477.56;5025412;28;20785;-65
2022/12/01 10:12:04;;;;;;;10.40;4.67;;;6.90;99.90;;;7.27;69.04;101471.53;5019113;28;20621;-65
2022/12/01 10:14:34;;;;;;;4.60;2.90;;;7.00;99.90;;;7.22;70.05;101473.47;5032379;28;20648;-65
2022/12/01 10:17:23;;;;;;;6.33;4.10;;;6.90;99.90;;;7.25;69.63;101469.91;5029196;28;20668;-65
2022/12/01 10:20:19;;;;;;;5.60;3.47;;;6.90;99.90;;;7.30;69.96;101466.22;5031778;28;20625;-65
2022/12/01 10:23:19;;;;;;;6.93;5.00;;;7.00;99.90;;;7.23;69.99;101463.94;5026238;28;20652;-65
2022/12/01 10:25:58;;;;;;;8.93;4.67;;;7.00;99.90;;;7.20;69.77;101454.53;5034638;28;20684;-65
2022/12/01 10:28:50;;;;;;;7.27;3.30;;;6.90;99.90;;;7.20;68.72;101462.31;5026906;28;20703;-66
2022/12/01 10:31:49;;;;;;;4.77;3.90;;;6.90;99.90;;;7.28;68.27;101455.06;5031489;28;20624;-65
2022/12/01 10:34:36;;;;;;;6.07;4.27;;;7.00;99.90;;;7.23;68.92;101451.81;5031010;28;20729;-65
2022/12/01 10:37:03;;;;;;;4.67;2.90;;;7.00;99.90;;;7.32;66.95;101455.75;5036710;28;20666;-65
2022/12/01 10:39:40;;;;;;;8.70;6.67;;;7.00;99.90;;;7.10;68.85;101440.31;5033092;28;20637;-65
2022/12/01 10:42:21;;;;;;;7.53;5.20;;;7.00;99.90;;;7.21;67.81;101445.00;5029932;28;20643;-65
2022/12/01 10:44:49;;;;;;;5.60;3.87;;;7.00;99.90;;;7.03;68.03;101439.72;5032391;28;21058;-65
2022/12/01 10:47:23;;;;;;;9.70;6.00;;;6.90;99.90;;;7.03;68.69;101431.94;5013508;28;20650;-65
2022/12/01 10:49:51;;;;;;;1.10;1.10;;;6.90;99.90;;;6.93;69.17;101432.41;5031042;28;20989;-65
2022/12/01 10:52:40;;;;;;;8.63;6.70;;;6.80;99.90;;;7.04;69.64;101431.06;5029689;28;20628;-65